Time;durP1;ratioP1;P1;durP2;ratioP2;P2;SDS_P1;SDS_P2;PMS_P1;PMS_P2;Temp;Humidity;BMP_temperature;BMP_pressure;BME280_temperature;BME280_humidity;BME280_pressure;Samples;Min_cycle;Max_cycle;Signal;HPM_P1;HPM_P2
2024/02/04 00:00:32;;;;;;;32.78;12.02;;;10.30;99.90;;;;;;5053688;28;20025;-84
2024/02/04 00:02:57;;;;;;;34.13;11.82;;;10.40;99.90;;;;;;5045986;28;20025;-85
2024/02/04 00:05:23;;;;;;;40.25;13.50;;;10.30;99.90;;;;;;5050225;28;20129;-84
2024/02/04 00:07:48;;;;;;;39.20;12.98;;;10.40;99.90;;;;;;5052503;28;20056;-84
2024/02/04 00:10:15;;;;;;;34.85;12.07;;;10.40;99.90;;;;;;5053477;28;20035;-85
2024/02/04 00:12:41;;;;;;;48.20;13.55;;;10.40;99.90;;;;;;5055201;28;20481;-85
2024/02/04 00:15:07;;;;;;;39.05;13.30;;;10.40;99.90;;;;;;5055135;28;20122;-84
2024/02/04 00:17:33;;;;;;;38.83;12.90;;;10.40;99.90;;;;;;5054578;28;20029;-84
2024/02/04 00:20:05;;;;;;;43.38;13.65;;;10.50;99.90;;;;;;5054745;28;20376;-84
2024/02/04 00:22:33;;;;;;;39.10;13.75;;;10.50;99.90;;;;;;5053765;28;20025;-85
2024/02/04 00:25:04;;;;;;;50.47;14.63;;;11.40;99.90;;;;;;5043940;28;20334;-84
2024/02/04 00:27:33;;;;;;;33.20;13.65;;;10.50;99.90;;;;;;5050856;28;20052;-84
2024/02/04 00:29:59;;;;;;;33.95;13.93;;;10.40;99.90;;;;;;5053461;28;20102;-85
2024/02/04 00:32:25;;;;;;;36.80;13.95;;;10.40;99.90;;;;;;5053977;28;20021;-84
2024/02/04 00:34:52;;;;;;;27.42;12.73;;;10.40;99.90;;;;;;5053081;28;20024;-84
2024/02/04 00:37:17;;;;;;;39.15;14.30;;;10.40;99.90;;;;;;5052832;28;20036;-84
2024/02/04 00:39:43;;;;;;;38.40;14.57;;;11.40;99.90;;;;;;5053214;28;20025;-84
2024/02/04 00:42:08;;;;;;;28.10;14.05;;;10.40;99.90;;;;;;5043447;28;20029;-85
2024/02/04 00:44:34;;;;;;;44.03;13.82;;;10.40;99.90;;;;;;5035026;28;20043;-85
2024/02/04 00:46:59;;;;;;;39.28;13.68;;;10.40;99.90;;;;;;5052204;28;20092;-84
2024/02/04 00:49:26;;;;;;;30.83;13.60;;;11.20;99.90;;;;;;5044369;28;20056;-84
2024/02/04 00:51:51;;;;;;;35.05;15.02;;;10.40;99.90;;;;;;5033357;28;20436;-84
2024/02/04 00:54:17;;;;;;;46.70;14.77;;;10.40;99.90;;;;;;5033947;28;20026;-85
2024/02/04 00:56:43;;;;;;;23.80;12.63;;;10.40;99.90;;;;;;5048530;28;20362;-83
2024/02/04 00:59:08;;;;;;;28.83;12.60;;;10.40;99.90;;;;;;5053602;28;20477;-84
2024/02/04 01:01:34;;;;;;;29.65;12.23;;;10.40;99.90;;;;;;5052510;28;20508;-85
2024/02/04 01:03:59;;;;;;;31.38;14.20;;;10.40;99.90;;;;;;5052446;28;20021;-84
2024/02/04 01:06:25;;;;;;;34.03;13.57;;;10.40;99.90;;;;;;5049277;28;20033;-84
2024/02/04 01:08:51;;;;;;;33.38;13.60;;;10.40;99.90;;;;;;5052616;28;20460;-84
2024/02/04 01:11:16;;;;;;;30.40;13.45;;;10.40;99.90;;;;;;5051847;28;20123;-84
2024/02/04 01:13:42;;;;;;;28.40;12.88;;;10.40;99.90;;;;;;5052813;28;20029;-84
2024/02/04 01:16:08;;;;;;;35.92;13.82;;;10.50;99.90;;;;;;5052391;28;20368;-85
2024/02/04 01:18:33;;;;;;;35.92;12.85;;;10.40;99.90;;;;;;5051898;28;20017;-84
2024/02/04 01:21:00;;;;;;;32.25;12.75;;;11.50;99.90;;;;;;5053257;28;20029;-84
2024/02/04 01:23:26;;;;;;;40.67;12.90;;;10.40;99.90;;;;;;5052871;28;20545;-84
2024/02/04 01:25:51;;;;;;;41.00;14.63;;;10.50;99.90;;;;;;5048363;28;20033;-84
2024/02/04 01:28:17;;;;;;;30.02;12.50;;;10.40;99.90;;;;;;5051031;28;20033;-84
2024/02/04 01:30:42;;;;;;;30.23;14.05;;;10.40;99.90;;;;;;5050624;28;20044;-84
2024/02/04 01:33:08;;;;;;;33.45;12.90;;;10.40;99.90;;;;;;5053111;28;20052;-84
2024/02/04 01:35:34;;;;;;;36.75;13.20;;;10.40;99.90;;;;;;5051873;28;20384;-84
2024/02/04 01:37:59;;;;;;;38.50;13.48;;;10.40;99.90;;;;;;5050159;28;20091;-84
2024/02/04 01:40:25;;;;;;;29.65;13.70;;;10.40;99.90;;;;;;5047016;28;20100;-84
2024/02/04 01:42:50;;;;;;;24.17;13.05;;;10.40;99.90;;;;;;5032178;28;20055;-84
2024/02/04 01:45:16;;;;;;;29.83;13.30;;;10.50;99.90;;;;;;5031582;28;20535;-84
2024/02/04 01:47:41;;;;;;;32.63;14.98;;;10.40;99.90;;;;;;5038992;28;20477;-84
2024/02/04 01:50:07;;;;;;;30.27;13.63;;;10.40;99.90;;;;;;5039292;28;20025;-84
2024/02/04 01:52:37;;;;;;;30.58;13.50;;;10.40;99.90;;;;;;5050104;28;20028;-84
2024/02/04 01:55:05;;;;;;;30.00;13.80;;;10.40;99.90;;;;;;5052577;28;20079;-85
2024/02/04 01:57:32;;;;;;;31.65;14.77;;;10.40;99.90;;;;;;5051955;28;20029;-84
2024/02/04 01:59:58;;;;;;;43.60;14.50;;;10.40;99.90;;;;;;5051593;28;20547;-83
2024/02/04 02:02:25;;;;;;;29.00;12.93;;;10.90;99.90;;;;;;5052789;28;20037;-85
2024/02/04 02:04:51;;;;;;;29.35;13.30;;;10.40;99.90;;;;;;5052396;28;20029;-84
2024/02/04 02:07:20;;;;;;;39.58;15.02;;;10.40;99.90;;;;;;5051494;28;20414;-84
2024/02/04 02:09:46;;;;;;;31.42;13.60;;;10.40;99.90;;;;;;5051718;28;20021;-83
2024/02/04 02:12:17;;;;;;;27.40;13.50;;;10.40;99.90;;;;;;5051697;28;20496;-84
2024/02/04 02:14:49;;;;;;;34.72;13.88;;;10.50;99.90;;;;;;5048776;28;20032;-83
2024/02/04 02:17:19;;;;;;;30.67;13.93;;;10.40;99.90;;;;;;5050801;28;20083;-84
2024/02/04 02:20:08;;;;;;;40.75;14.45;;;10.40;99.90;;;;;;5050363;28;20021;-84
2024/02/04 02:22:49;;;;;;;34.05;14.13;;;10.40;99.90;;;;;;5050983;28;20037;-84
2024/02/04 02:25:16;;;;;;;30.92;13.30;;;10.30;99.90;;;;;;5050936;28;20063;-84
2024/02/04 02:27:51;;;;;;;38.78;14.98;;;10.40;99.90;;;;;;5050761;28;20560;-83
2024/02/04 02:30:17;;;;;;;38.63;15.18;;;10.30;99.90;;;;;;5051615;28;20047;-84
2024/02/04 02:32:48;;;;;;;29.15;13.55;;;11.40;99.90;;;;;;5051527;28;20472;-84
2024/02/04 02:35:16;;;;;;;27.25;13.25;;;10.30;99.90;;;;;;5049861;28;20033;-84
2024/02/04 02:38:02;;;;;;;34.50;14.85;;;10.20;99.90;;;;;;5047901;28;20087;-84
2024/02/04 02:40:58;;;;;;;32.60;14.15;;;10.20;99.90;;;;;;5045775;28;20029;-84
2024/02/04 02:43:26;;;;;;;35.78;14.35;;;10.20;99.90;;;;;;5030462;28;20037;-83
2024/02/04 02:45:52;;;;;;;35.53;13.63;;;10.20;99.90;;;;;;5031200;28;20121;-84
2024/02/04 02:48:18;;;;;;;25.17;13.98;;;10.20;99.90;;;;;;5030655;28;20203;-83
2024/02/04 02:50:44;;;;;;;31.25;13.18;;;10.20;99.90;;;;;;5031255;28;20469;-84
2024/02/04 02:53:09;;;;;;;33.53;13.38;;;10.20;99.90;;;;;;5031169;28;20022;-83
2024/02/04 02:55:35;;;;;;;34.70;12.75;;;10.20;99.90;;;;;;5036207;28;20116;-84
2024/02/04 02:58:00;;;;;;;26.35;10.68;;;10.20;99.90;;;;;;5050195;28;20025;-84
2024/02/04 03:00:26;;;;;;;24.95;11.10;;;10.60;99.90;;;;;;5048234;28;20112;-84
2024/02/04 03:02:52;;;;;;;26.98;10.07;;;10.20;99.90;;;;;;5049675;28;20099;-84
2024/02/04 03:05:18;;;;;;;24.52;10.80;;;10.20;99.90;;;;;;5050805;28;20036;-85
2024/02/04 03:07:43;;;;;;;27.67;11.00;;;10.20;99.90;;;;;;5050339;28;20037;-85
2024/02/04 03:10:09;;;;;;;30.00;12.13;;;10.10;99.90;;;;;;5050639;28;20075;-85
2024/02/04 03:12:35;;;;;;;41.55;13.60;;;10.10;99.90;;;;;;5050789;28;20115;-85
2024/02/04 03:15:01;;;;;;;21.52;10.55;;;10.10;99.90;;;;;;5051290;28;20031;-85
2024/02/04 03:17:26;;;;;;;21.75;10.63;;;10.10;99.90;;;;;;5049593;28;20025;-84
2024/02/04 03:19:54;;;;;;;28.40;12.13;;;10.10;99.90;;;;;;5037092;28;20438;-84
2024/02/04 03:22:21;;;;;;;26.08;10.77;;;10.10;99.90;;;;;;5031679;28;20029;-85
2024/02/04 03:24:47;;;;;;;22.25;11.18;;;10.20;99.90;;;;;;5049989;28;20025;-84
2024/02/04 03:27:12;;;;;;;28.00;12.00;;;10.20;99.90;;;;;;5050030;28;20392;-84
2024/02/04 03:29:38;;;;;;;31.83;13.50;;;10.20;99.90;;;;;;5048763;28;20021;-84
2024/02/04 03:32:04;;;;;;;34.97;14.32;;;10.20;99.90;;;;;;5050225;28;20044;-84
2024/02/04 03:34:29;;;;;;;27.67;14.25;;;10.20;99.90;;;;;;5050974;28;20509;-83
2024/02/04 03:36:55;;;;;;;29.73;13.85;;;10.20;99.90;;;;;;5050166;28;20097;-84
2024/02/04 03:39:20;;;;;;;29.05;13.75;;;10.20;99.90;;;;;;5050181;28;20376;-84
2024/02/04 03:41:46;;;;;;;28.63;13.13;;;10.30;99.90;;;;;;5041385;28;20148;-84
2024/02/04 03:44:12;;;;;;;30.52;13.05;;;10.20;99.90;;;;;;5031088;28;20026;-84
2024/02/04 03:46:39;;;;;;;26.23;12.32;;;10.20;99.90;;;;;;5029359;28;20030;-84
2024/02/04 03:49:06;;;;;;;31.30;12.38;;;10.20;99.90;;;;;;5034982;28;20037;-85
2024/02/04 03:51:32;;;;;;;21.20;8.80;;;10.20;99.90;;;;;;5049454;28;20100;-84
2024/02/04 03:53:57;;;;;;;18.05;9.43;;;10.20;99.90;;;;;;5050898;28;20533;-83
2024/02/04 03:56:23;;;;;;;25.45;10.50;;;10.30;99.90;;;;;;5048849;28;20029;-84
2024/02/04 03:58:50;;;;;;;24.90;10.20;;;10.30;99.90;;;;;;5050231;28;20023;-83
2024/02/04 04:01:15;;;;;;;21.50;9.30;;;10.20;99.90;;;;;;5050488;28;20071;-84
2024/02/04 04:03:42;;;;;;;22.52;10.02;;;10.30;99.90;;;;;;5053779;28;20021;-83
2024/02/04 04:06:08;;;;;;;23.17;10.48;;;10.30;99.90;;;;;;5053522;28;20481;-83
2024/02/04 04:08:34;;;;;;;21.08;9.95;;;10.20;99.90;;;;;;5052533;28;20104;-84
2024/02/04 04:11:00;;;;;;;22.73;11.30;;;10.20;99.90;;;;;;5036653;28;20096;-83
2024/02/04 04:13:26;;;;;;;25.85;10.48;;;10.30;99.90;;;;;;5046867;28;20087;-84
2024/02/04 04:15:51;;;;;;;27.25;11.07;;;10.30;99.90;;;;;;5053192;28;20025;-83
2024/02/04 04:18:17;;;;;;;21.52;9.55;;;10.30;99.90;;;;;;5054211;28;20033;-82
2024/02/04 04:20:42;;;;;;;28.88;11.82;;;10.20;99.90;;;;;;5053262;28;20052;-83
2024/02/04 04:23:08;;;;;;;25.02;13.38;;;10.90;99.90;;;;;;5054010;28;20492;-84
2024/02/04 04:25:33;;;;;;;24.35;14.73;;;10.20;99.90;;;;;;5052594;28;20104;-84
2024/02/04 04:27:59;;;;;;;28.15;15.52;;;10.20;99.90;;;;;;5046691;28;20044;-83
2024/02/04 04:30:25;;;;;;;27.00;15.45;;;10.20;99.90;;;;;;5044996;28;20048;-83
2024/02/04 04:32:50;;;;;;;35.00;16.13;;;10.20;99.90;;;;;;5051721;28;20094;-83
2024/02/04 04:35:16;;;;;;;30.30;15.50;;;10.20;99.90;;;;;;5052970;28;20060;-84
2024/02/04 04:37:41;;;;;;;29.05;15.77;;;10.20;99.90;;;;;;5052477;28;20428;-84
2024/02/04 04:40:08;;;;;;;32.17;16.35;;;10.20;99.90;;;;;;5054170;28;20032;-84
2024/02/04 04:42:33;;;;;;;40.80;17.92;;;10.20;99.90;;;;;;5052849;28;20033;-83
2024/02/04 04:44:59;;;;;;;34.75;16.98;;;10.20;99.90;;;;;;5054527;28;20032;-84
2024/02/04 04:47:24;;;;;;;35.45;17.23;;;11.00;99.90;;;;;;5052760;28;20129;-83
2024/02/04 04:49:50;;;;;;;32.85;17.90;;;10.20;99.90;;;;;;5049238;28;20404;-83
2024/02/04 04:52:16;;;;;;;38.47;16.98;;;11.20;99.90;;;;;;5051704;28;20457;-83
2024/02/04 04:54:42;;;;;;;38.75;16.50;;;10.20;99.90;;;;;;5037857;28;20423;-83
2024/02/04 04:57:08;;;;;;;32.58;17.83;;;10.20;99.90;;;;;;5034943;28;20041;-84
2024/02/04 04:59:35;;;;;;;28.23;17.40;;;10.20;99.90;;;;;;5033003;28;20177;-84
2024/02/04 05:02:01;;;;;;;35.35;20.55;;;10.20;99.90;;;;;;5032042;28;20036;-84
2024/02/04 05:04:27;;;;;;;42.90;20.45;;;10.20;99.90;;;;;;5033811;28;20030;-84
2024/02/04 05:06:52;;;;;;;42.97;19.55;;;10.20;99.90;;;;;;5037419;28;20037;-84
2024/02/04 05:09:18;;;;;;;39.70;19.10;;;10.10;99.90;;;;;;5033289;28;20454;-85
2024/02/04 05:11:44;;;;;;;27.75;16.48;;;10.20;99.90;;;;;;5042113;28;20064;-84
2024/02/04 05:14:09;;;;;;;26.40;14.93;;;10.20;99.90;;;;;;5052737;28;20032;-84
2024/02/04 05:16:35;;;;;;;33.58;14.68;;;10.10;99.90;;;;;;5051203;28;20033;-84
2024/02/04 05:19:02;;;;;;;29.95;12.68;;;10.60;99.90;;;;;;5053531;28;20468;-88
2024/02/04 05:21:27;;;;;;;24.00;12.95;;;10.20;99.90;;;;;;5051567;28;20912;-84
2024/02/04 05:23:53;;;;;;;25.33;13.20;;;10.20;99.90;;;;;;5051659;28;20031;-84
2024/02/04 05:26:18;;;;;;;31.35;11.55;;;10.20;99.90;;;;;;5052536;28;20044;-84
2024/02/04 05:28:44;;;;;;;25.83;11.15;;;10.20;99.90;;;;;;5051838;28;20600;-84
2024/02/04 05:31:09;;;;;;;24.30;11.48;;;10.20;99.90;;;;;;5047553;28;20514;-83
2024/02/04 05:33:35;;;;;;;21.42;10.98;;;10.30;99.90;;;;;;5032493;28;20431;-86
2024/02/04 05:36:01;;;;;;;28.52;10.50;;;10.20;99.90;;;;;;5032733;28;20040;-83
2024/02/04 05:38:26;;;;;;;25.38;8.95;;;10.20;99.90;;;;;;5036560;28;20025;-83
2024/02/04 05:40:52;;;;;;;27.88;9.93;;;10.20;99.90;;;;;;5051887;28;20723;-84
2024/02/04 05:43:17;;;;;;;27.15;10.27;;;10.20;99.90;;;;;;5052638;28;20031;-84
2024/02/04 05:45:43;;;;;;;15.07;9.48;;;10.20;99.90;;;;;;5051379;28;20028;-84
2024/02/04 05:48:09;;;;;;;27.63;10.25;;;10.20;99.90;;;;;;5052725;28;20469;-83
2024/02/04 05:50:35;;;;;;;17.92;8.68;;;10.20;99.90;;;;;;5051113;28;20029;-85
2024/02/04 05:53:00;;;;;;;17.20;7.60;;;10.30;99.90;;;;;;5050790;28;20434;-85
2024/02/04 05:55:26;;;;;;;23.08;8.18;;;10.30;99.90;;;;;;5046800;28;20021;-84
2024/02/04 05:57:51;;;;;;;25.35;8.60;;;10.30;99.90;;;;;;5051665;28;20843;-84
2024/02/04 06:00:17;;;;;;;27.98;8.95;;;10.30;99.90;;;;;;5051398;28;20376;-84
2024/02/04 06:02:43;;;;;;;23.92;8.18;;;10.30;99.90;;;;;;5051355;28;20024;-84
2024/02/04 06:05:09;;;;;;;21.23;8.07;;;10.30;99.90;;;;;;5051470;28;20032;-84
2024/02/04 06:07:35;;;;;;;21.45;7.43;;;10.30;99.90;;;;;;5051376;28;20036;-84
2024/02/04 06:10:03;;;;;;;26.50;9.20;;;10.30;99.90;;;;;;5052474;28;20100;-85
2024/02/04 06:12:29;;;;;;;16.23;6.82;;;10.30;99.90;;;;;;5049659;28;20048;-84
2024/02/04 06:14:55;;;;;;;25.38;9.68;;;10.20;99.90;;;;;;5049618;28;20546;-84
2024/02/04 06:17:20;;;;;;;25.92;8.73;;;10.30;99.90;;;;;;5041587;28;20061;-85
2024/02/04 06:19:46;;;;;;;28.83;8.95;;;10.20;99.90;;;;;;5049579;28;20024;-84
2024/02/04 06:22:11;;;;;;;26.75;9.05;;;10.20;99.90;;;;;;5051959;28;20056;-84
2024/02/04 06:24:38;;;;;;;27.80;9.88;;;10.20;99.90;;;;;;5050159;28;20083;-85
2024/02/04 06:27:04;;;;;;;23.05;9.20;;;10.20;99.90;;;;;;5050959;28;20492;-83
2024/02/04 06:29:30;;;;;;;28.27;10.50;;;10.20;99.90;;;;;;5051414;28;20064;-84
2024/02/04 06:31:55;;;;;;;20.65;8.90;;;11.00;99.90;;;;;;5051735;28;20032;-84
2024/02/04 06:34:21;;;;;;;27.20;10.25;;;10.30;99.90;;;;;;5047327;28;20033;-85
2024/02/04 06:36:47;;;;;;;36.45;10.70;;;10.80;99.90;;;;;;5050395;28;20384;-85
2024/02/04 06:39:14;;;;;;;27.08;9.82;;;10.20;99.90;;;;;;5040166;28;20033;-86
2024/02/04 06:41:40;;;;;;;24.65;10.05;;;10.20;99.90;;;;;;5038631;28;20025;-84
2024/02/04 06:44:05;;;;;;;34.75;10.23;;;10.20;99.90;;;;;;5050865;28;20032;-86
2024/02/04 06:46:31;;;;;;;28.63;10.52;;;10.20;99.90;;;;;;5050775;28;20037;-85
2024/02/04 06:48:57;;;;;;;33.33;11.13;;;10.20;99.90;;;;;;5050436;28;20037;-85
2024/02/04 06:51:22;;;;;;;25.63;9.15;;;10.20;99.90;;;;;;5048700;28;20465;-86
2024/02/04 06:53:48;;;;;;;27.38;10.23;;;10.20;99.90;;;;;;5046720;28;20031;-85
2024/02/04 06:56:13;;;;;;;33.97;10.32;;;10.20;99.90;;;;;;5044373;28;20032;-84
2024/02/04 06:58:40;;;;;;;33.88;10.43;;;10.20;99.90;;;;;;5047074;28;20488;-85
2024/02/04 07:01:06;;;;;;;30.58;9.07;;;10.20;99.90;;;;;;5033052;28;20414;-84
2024/02/04 07:03:32;;;;;;;42.22;12.57;;;10.20;99.90;;;;;;5049950;28;20017;-83
2024/02/04 07:05:58;;;;;;;31.23;10.38;;;10.20;99.90;;;;;;5043298;28;20113;-83
2024/02/04 07:08:24;;;;;;;32.38;9.95;;;10.10;99.90;;;;;;5043982;28;20492;-84
2024/02/04 07:10:50;;;;;;;36.88;10.35;;;10.10;99.90;;;;;;5050722;28;20367;-84
2024/02/04 07:13:15;;;;;;;35.88;10.35;;;11.00;99.90;;;;;;5049854;28;20071;-83
2024/02/04 07:15:41;;;;;;;27.33;9.20;;;10.00;99.90;;;;;;5048374;28;20024;-85
2024/02/04 07:18:07;;;;;;;23.77;9.23;;;10.10;99.90;;;;;;5048418;28;20033;-85
2024/02/04 07:20:33;;;;;;;20.48;7.43;;;10.00;99.90;;;;;;5050589;28;20025;-86
2024/02/04 07:22:58;;;;;;;25.15;7.97;;;10.00;99.90;;;;;;5048457;28;20047;-85
2024/02/04 07:25:24;;;;;;;22.83;7.72;;;10.00;99.90;;;;;;5051029;28;20449;-85
2024/02/04 07:27:49;;;;;;;25.67;8.70;;;10.10;99.90;;;;;;5049571;28;20032;-84
2024/02/04 07:30:15;;;;;;;27.15;9.02;;;10.00;99.90;;;;;;5049847;28;20512;-85
2024/02/04 07:32:41;;;;;;;25.25;8.70;;;10.00;99.90;;;;;;5050754;28;20464;-86
2024/02/04 07:35:08;;;;;;;23.67;9.15;;;10.00;99.90;;;;;;5050383;28;20025;-85
2024/02/04 07:37:37;;;;;;;24.00;9.13;;;10.00;99.90;;;;;;5050877;28;20037;-84
2024/02/04 07:40:05;;;;;;;30.52;9.73;;;10.00;99.90;;;;;;5051003;28;20025;-85
2024/02/04 07:42:31;;;;;;;30.52;10.63;;;10.00;99.90;;;;;;5047445;28;20029;-86
2024/02/04 07:44:56;;;;;;;29.50;10.23;;;10.10;99.90;;;;;;5050229;28;20033;-85
2024/02/04 07:47:22;;;;;;;25.58;8.38;;;10.00;99.90;;;;;;5053732;28;20435;-85
2024/02/04 07:49:49;;;;;;;26.38;7.95;;;10.00;99.90;;;;;;5054110;28;20028;-85
2024/02/04 07:52:14;;;;;;;27.73;8.07;;;10.00;99.90;;;;;;5054179;28;20071;-86
2024/02/04 07:54:40;;;;;;;20.05;8.60;;;10.30;99.90;;;;;;5044858;28;20389;-85
2024/02/04 07:57:12;;;;;;;25.08;8.85;;;10.80;99.90;;;;;;5044807;28;20121;-85
2024/02/04 07:59:53;;;;;;;23.42;9.15;;;10.00;99.90;;;;;;5047267;28;20025;-85
2024/02/04 08:02:19;;;;;;;21.95;7.82;;;10.90;99.90;;;;;;5033789;28;20036;-86
2024/02/04 08:04:44;;;;;;;19.73;6.93;;;10.90;99.90;;;;;;5038408;28;20029;-85
2024/02/04 08:07:10;;;;;;;27.95;7.32;;;10.80;99.90;;;;;;5054855;28;20033;-86
2024/02/04 08:09:35;;;;;;;19.02;7.60;;;10.00;99.90;;;;;;5054374;28;20483;-86
2024/02/04 08:12:01;;;;;;;20.88;7.75;;;10.20;99.90;;;;;;5050849;28;20031;-86
2024/02/04 08:14:36;;;;;;;29.85;7.32;;;10.00;99.90;;;;;;5050173;28;20013;-85
2024/02/04 08:17:02;;;;;;;22.83;7.18;;;10.60;99.90;;;;;;5040149;28;20025;-85
2024/02/04 08:19:27;;;;;;;20.45;7.10;;;10.00;99.90;;;;;;5054655;28;20036;-83
2024/02/04 08:21:53;;;;;;;21.08;6.68;;;10.70;99.90;;;;;;5051958;28;20025;-84
2024/02/04 08:24:19;;;;;;;24.75;6.25;;;10.10;99.90;;;;;;5051174;28;20112;-83
2024/02/04 08:26:44;;;;;;;13.52;6.07;;;10.10;99.90;;;;;;5050938;28;20503;-83
2024/02/04 08:29:11;;;;;;;17.20;5.57;;;10.20;99.90;;;;;;5049149;28;20029;-83
2024/02/04 08:31:36;;;;;;;13.40;5.43;;;10.20;99.90;;;;;;5050539;28;20526;-84
2024/02/04 08:34:02;;;;;;;11.10;5.07;;;10.30;99.90;;;;;;5048276;28;20025;-84
2024/02/04 08:36:30;;;;;;;15.43;4.70;;;10.30;99.90;;;;;;5050052;28;20021;-83
2024/02/04 08:38:56;;;;;;;9.25;4.13;;;10.40;99.90;;;;;;5051656;28;20037;-86
2024/02/04 08:41:22;;;;;;;9.43;4.97;;;10.40;99.90;;;;;;5046072;28;20025;-84
2024/02/04 08:43:47;;;;;;;7.63;3.45;;;10.40;99.90;;;;;;5052122;28;20029;-83
2024/02/04 08:46:13;;;;;;;13.73;4.05;;;11.10;99.90;;;;;;5051875;28;20060;-84
2024/02/04 08:48:38;;;;;;;10.32;3.17;;;10.50;99.90;;;;;;5051426;28;20025;-82
2024/02/04 08:51:09;;;;;;;9.95;3.75;;;10.50;99.90;;;;;;5052841;28;20057;-83
2024/02/04 08:53:35;;;;;;;13.27;3.55;;;10.60;99.90;;;;;;5051994;28;20040;-85
2024/02/04 08:56:00;;;;;;;7.75;2.88;;;10.60;99.90;;;;;;5052497;28;20373;-83
2024/02/04 08:58:26;;;;;;;7.38;2.90;;;10.90;99.90;;;;;;5053687;28;20384;-84
2024/02/04 09:00:51;;;;;;;8.82;3.35;;;10.60;99.90;;;;;;5039455;28;20989;-82
2024/02/04 09:03:17;;;;;;;7.82;2.85;;;10.60;99.90;;;;;;5043600;28;20108;-83
2024/02/04 09:05:43;;;;;;;8.30;2.38;;;10.70;99.90;;;;;;5042315;28;20083;-82
2024/02/04 09:08:10;;;;;;;11.45;4.00;;;10.70;99.90;;;;;;5046266;28;20045;-83
2024/02/04 09:10:36;;;;;;;11.52;3.35;;;10.70;99.90;;;;;;5032118;28;20033;-83
2024/02/04 09:13:02;;;;;;;6.57;3.05;;;10.70;99.90;;;;;;5032786;28;20427;-82
2024/02/04 09:15:27;;;;;;;5.90;3.22;;;10.70;99.90;;;;;;5032213;28;20025;-81
2024/02/04 09:17:53;;;;;;;7.22;2.75;;;10.70;99.90;;;;;;5032900;28;20275;-85
2024/02/04 09:20:18;;;;;;;7.07;2.72;;;10.70;99.90;;;;;;5033369;28;20112;-81
2024/02/04 09:22:44;;;;;;;11.40;2.10;;;10.80;99.90;;;;;;5032497;28;20156;-83
2024/02/04 09:25:09;;;;;;;7.30;2.05;;;10.80;99.90;;;;;;5032994;28;20060;-84
2024/02/04 09:27:35;;;;;;;7.85;2.47;;;10.80;99.90;;;;;;5033704;28;20094;-84
2024/02/04 09:30:01;;;;;;;6.82;2.28;;;10.80;99.90;;;;;;5048228;28;20045;-82
2024/02/04 09:32:26;;;;;;;4.85;1.80;;;10.90;99.90;;;;;;5052746;28;20025;-84
2024/02/04 09:34:52;;;;;;;3.15;1.67;;;10.90;99.90;;;;;;5051990;28;20112;-83
2024/02/04 09:37:17;;;;;;;6.30;2.00;;;11.50;99.90;;;;;;5049815;28;20048;-85
2024/02/04 09:39:43;;;;;;;6.05;1.92;;;10.90;99.90;;;;;;5034599;28;20025;-85
2024/02/04 09:42:10;;;;;;;2.70;1.15;;;10.90;99.90;;;;;;5034827;28;20059;-84
2024/02/04 09:44:36;;;;;;;6.38;1.85;;;10.90;99.90;;;;;;5036942;28;20428;-83
2024/02/04 09:47:02;;;;;;;4.53;1.20;;;10.90;99.90;;;;;;5040595;28;20061;-90
2024/02/04 09:49:27;;;;;;;4.47;1.42;;;10.90;99.90;;;;;;5041673;28;20412;-84
2024/02/04 09:51:55;;;;;;;1.98;1.08;;;10.90;99.90;;;;;;5050008;28;20091;-84
2024/02/04 09:54:22;;;;;;;1.02;0.63;;;10.90;99.90;;;;;;5059105;28;20025;-86
2024/02/04 09:56:47;;;;;;;1.27;0.88;;;11.60;99.90;;;;;;5063317;28;20029;-87
2024/02/04 09:59:16;;;;;;;3.05;0.90;;;10.70;99.90;;;;;;5061238;28;20021;-87
2024/02/04 10:01:42;;;;;;;2.50;1.23;;;10.60;99.90;;;;;;5054524;28;20107;-87
2024/02/04 10:04:09;;;;;;;3.35;2.38;;;11.10;99.90;;;;;;5044746;28;20133;-84
2024/02/04 10:06:34;;;;;;;4.68;1.88;;;10.50;99.90;;;;;;5043526;28;20040;-83
2024/02/04 10:09:00;;;;;;;6.70;1.85;;;10.50;99.90;;;;;;5033280;28;20022;-86
2024/02/04 10:11:25;;;;;;;5.00;2.17;;;10.40;99.90;;;;;;5035059;28;20051;-83
2024/02/04 10:14:03;;;;;;;5.32;3.35;;;10.40;99.90;;;;;;5050810;28;20116;-84
2024/02/04 10:16:29;;;;;;;8.85;3.60;;;10.00;99.90;;;;;;5045653;28;20037;-84
2024/02/04 10:18:58;;;;;;;7.63;3.42;;;10.40;99.90;;;;;;5044142;28;20032;-84
2024/02/04 10:21:25;;;;;;;8.48;3.90;;;10.40;99.90;;;;;;5051306;28;20068;-84
2024/02/04 10:24:14;;;;;;;9.75;4.18;;;10.50;99.90;;;;;;5048406;28;20090;-86
2024/02/04 10:26:43;;;;;;;9.75;3.85;;;10.30;99.90;;;;;;5045149;28;20116;-86
2024/02/04 10:29:26;;;;;;;12.98;4.28;;;10.90;99.90;;;;;;5046192;28;20032;-84
2024/02/04 10:31:56;;;;;;;13.32;4.32;;;11.20;99.90;;;;;;5041795;28;20045;-85
2024/02/04 10:34:35;;;;;;;18.00;4.63;;;11.30;99.90;;;;;;5033266;28;20035;-84
2024/02/04 10:37:04;;;;;;;22.35;6.18;;;10.80;99.90;;;;;;5044494;28;20039;-85
2024/02/04 10:39:29;;;;;;;15.00;4.45;;;10.20;99.90;;;;;;5049862;28;20278;-86
2024/02/04 10:42:16;;;;;;;13.50;4.28;;;10.10;99.90;;;;;;5044227;28;20568;-87
2024/02/04 10:44:44;;;;;;;13.27;3.83;;;10.20;99.90;;;;;;5044185;28;20033;-85
2024/02/04 10:47:32;;;;;;;22.02;5.43;;;11.20;99.90;;;;;;5044376;28;20029;-86
2024/02/04 10:50:16;;;;;;;23.80;5.07;;;10.20;99.90;;;;;;5045357;28;20578;-89
2024/02/04 10:52:58;;;;;;;14.50;4.72;;;10.10;99.90;;;;;;5046503;28;20032;-86
2024/02/04 10:55:29;;;;;;;34.85;5.35;;;10.00;99.90;;;;;;5041383;28;20033;-86
2024/02/04 10:57:55;;;;;;;20.17;4.35;;;10.10;99.90;;;;;;5048776;28;20043;-85
2024/02/04 11:00:21;;;;;;;18.23;4.72;;;10.10;99.90;;;;;;5056540;28;20024;-86
2024/02/04 11:02:49;;;;;;;21.58;4.85;;;10.10;99.90;;;;;;5048918;28;20039;-85
2024/02/04 11:05:17;;;;;;;25.30;4.68;;;10.10;99.90;;;;;;5046874;28;20036;-86
2024/02/04 11:07:43;;;;;;;20.15;4.95;;;10.10;99.90;;;;;;5047206;28;20396;-84
2024/02/04 11:10:10;;;;;;;18.65;4.00;;;10.30;99.90;;;;;;5051103;28;20468;-85
2024/02/04 11:12:40;;;;;;;20.13;5.20;;;10.10;99.90;;;;;;5052444;28;20036;-85
2024/02/04 11:15:13;;;;;;;25.50;4.10;;;10.10;99.90;;;;;;5053670;28;20033;-83
2024/02/04 11:17:51;;;;;;;16.58;4.50;;;10.10;99.90;;;;;;5044501;28;20033;-85
2024/02/04 11:20:31;;;;;;;18.92;4.43;;;10.20;99.90;;;;;;5050280;28;20043;-86
2024/02/04 11:23:29;;;;;;;25.45;4.53;;;10.20;99.90;;;;;;5056574;28;20035;-84
2024/02/04 11:25:57;;;;;;;19.05;4.35;;;10.20;99.90;;;;;;5057476;28;20120;-84
2024/02/04 11:28:25;;;;;;;16.70;4.85;;;10.20;99.90;;;;;;5056244;28;20045;-86
2024/02/04 11:30:51;;;;;;;14.23;3.75;;;10.20;99.90;;;;;;5056429;28;20116;-85
2024/02/04 11:33:22;;;;;;;16.75;4.03;;;10.30;99.90;;;;;;5056620;28;20029;-85
2024/02/04 11:36:04;;;;;;;14.43;3.45;;;10.30;99.90;;;;;;5053985;28;20025;-84
2024/02/04 11:38:37;;;;;;;11.60;3.03;;;10.30;99.90;;;;;;5054938;28;20385;-87
2024/02/04 11:41:03;;;;;;;8.25;2.72;;;10.40;99.90;;;;;;5057491;28;20036;-85
2024/02/04 11:43:32;;;;;;;9.27;2.72;;;10.40;99.90;;;;;;5056960;28;20013;-87
2024/02/04 11:45:59;;;;;;;10.95;3.40;;;10.40;99.90;;;;;;5056984;28;20091;-87
2024/02/04 11:48:38;;;;;;;12.88;2.90;;;10.50;99.90;;;;;;5056261;28;20186;-87
2024/02/04 11:51:05;;;;;;;9.27;2.30;;;10.60;99.90;;;;;;5039856;28;20017;-87
2024/02/04 11:53:32;;;;;;;16.95;3.47;;;10.70;99.90;;;;;;5058149;28;20496;-86
2024/02/04 11:56:00;;;;;;;17.90;3.15;;;10.80;99.90;;;;;;5058289;28;20032;-86
2024/02/04 11:58:27;;;;;;;8.77;2.17;;;10.80;99.90;;;;;;5052119;28;20036;-84
2024/02/04 12:00:57;;;;;;;11.18;2.17;;;10.90;99.90;;;;;;5056307;28;20060;-84
2024/02/04 12:03:33;;;;;;;8.77;1.77;;;10.90;99.90;;;;;;5056487;28;20373;-86
2024/02/04 12:05:59;;;;;;;9.40;1.90;;;10.90;99.90;;;;;;5052997;28;20040;-87
2024/02/04 12:11:02;;;;;;;3.30;1.70;;;11.00;99.90;;;;;;5059558;23;20523;-86
2024/02/04 12:13:50;;;;;;;5.60;2.00;;;11.90;99.90;;;;;;5055757;28;20036;-86
2024/02/04 12:16:16;;;;;;;10.38;3.03;;;11.70;99.90;;;;;;5051070;28;20544;-85
2024/02/04 12:18:49;;;;;;;12.57;3.70;;;11.50;99.90;;;;;;5053051;28;20048;-85
2024/02/04 12:21:14;;;;;;;8.18;1.92;;;11.30;99.90;;;;;;5053501;28;20025;-86
2024/02/04 12:23:40;;;;;;;8.82;2.08;;;11.00;99.90;;;;;;5051917;28;20474;-86
2024/02/04 12:26:06;;;;;;;6.82;2.15;;;11.00;99.90;;;;;;5049299;28;20032;-87
2024/02/04 12:28:31;;;;;;;11.25;2.40;;;11.00;99.90;;;;;;5032977;28;20041;-86
2024/02/04 12:31:00;;;;;;;5.90;2.40;;;11.10;99.90;;;;;;5050292;28;20033;-86
2024/02/04 12:33:25;;;;;;;7.88;2.45;;;11.00;99.90;;;;;;5052216;28;20021;-86
2024/02/04 12:35:52;;;;;;;17.35;2.47;;;11.00;99.90;;;;;;5051514;28;20100;-86